Time;durP1;ratioP1;P1;durP2;ratioP2;P2;SDS_P1;SDS_P2;PMS_P1;PMS_P2;Temp;Humidity;BMP_temperature;BMP_pressure;BME280_temperature;BME280_humidity;BME280_pressure;Samples;Min_cycle;Max_cycle;Signal;HPM_P1;HPM_P2
2023/09/21 00:01:10;;;;;;;5.03;1.17;;;17.50;99.90;;;;;;6237207;22;20416;-76
2023/09/21 00:03:36;;;;;;;6.65;1.75;;;17.50;99.90;;;;;;6238591;23;20358;-76
2023/09/21 00:06:03;;;;;;;5.00;1.38;;;17.40;99.90;;;;;;6239072;23;20358;-76
2023/09/21 00:08:30;;;;;;;5.57;1.90;;;17.40;99.90;;;;;;6239493;23;20726;-76
2023/09/21 00:11:01;;;;;;;8.55;1.60;;;17.40;99.90;;;;;;6240333;23;20870;-76
2023/09/21 00:13:27;;;;;;;7.00;1.50;;;17.40;99.90;;;;;;6240375;23;20445;-76
2023/09/21 00:15:56;;;;;;;5.63;1.40;;;17.30;99.90;;;;;;6240046;23;20491;-76
2023/09/21 00:18:23;;;;;;;10.27;2.00;;;17.30;99.90;;;;;;6239764;23;20652;-76
2023/09/21 00:20:52;;;;;;;5.60;1.42;;;17.30;1.00;;;;;;6240784;23;20755;-76
2023/09/21 00:23:20;;;;;;;5.50;1.60;;;17.20;1.00;;;;;;6240921;23;20651;-76
2023/09/21 00:25:47;;;;;;;5.93;1.65;;;17.20;1.00;;;;;;6240568;23;20883;-76
2023/09/21 00:28:14;;;;;;;6.25;1.90;;;17.20;1.00;;;;;;6240412;23;20672;-76
2023/09/21 00:30:41;;;;;;;7.18;2.08;;;17.30;1.00;;;;;;6240487;23;20698;-76
2023/09/21 00:33:08;;;;;;;5.63;1.70;;;17.30;99.90;;;;;;6239542;23;20362;-76
2023/09/21 00:35:39;;;;;;;11.30;2.10;;;17.40;1.00;;;;;;6239206;23;20439;-76
2023/09/21 00:38:10;;;;;;;5.43;1.73;;;17.40;99.90;;;;;;6240475;23;20847;-76
2023/09/21 00:40:38;;;;;;;7.63;1.83;;;17.40;99.90;;;;;;6239873;23;20377;-76
2023/09/21 00:43:04;;;;;;;5.90;1.60;;;17.40;99.90;;;;;;6239874;23;20734;-76
2023/09/21 00:45:30;;;;;;;6.57;2.05;;;17.40;99.90;;;;;;6239678;23;20366;-76
2023/09/21 00:47:56;;;;;;;6.77;2.00;;;17.40;99.90;;;;;;6239617;23;20432;-76
2023/09/21 00:50:24;;;;;;;4.87;1.37;;;17.40;99.90;;;;;;6239737;23;20366;-76
2023/09/21 00:52:53;;;;;;;6.53;1.70;;;17.40;99.90;;;;;;6239454;23;21267;-76
2023/09/21 00:55:30;;;;;;;6.35;1.95;;;17.40;99.90;;;;;;6240545;23;20397;-76
2023/09/21 00:58:03;;;;;;;5.82;1.92;;;17.30;99.90;;;;;;6239641;23;20829;-76
2023/09/21 01:00:31;;;;;;;7.43;1.70;;;17.40;99.90;;;;;;6239554;23;20487;-75
2023/09/21 01:03:07;;;;;;;8.02;1.70;;;17.30;1.00;;;;;;6240120;23;20358;-75
2023/09/21 01:05:39;;;;;;;6.38;2.13;;;17.30;1.00;;;;;;6240158;23;20411;-75
2023/09/21 01:08:10;;;;;;;10.40;2.20;;;17.30;1.00;;;;;;6239815;23;20380;-76
2023/09/21 01:10:44;;;;;;;6.90;1.57;;;17.30;1.00;;;;;;6237142;23;20362;-76
2023/09/21 01:13:11;;;;;;;7.40;2.10;;;17.20;1.00;;;;;;6239215;23;20365;-76
2023/09/21 01:15:37;;;;;;;6.40;1.90;;;17.20;1.00;;;;;;6207587;23;20391;-76
2023/09/21 01:18:07;;;;;;;5.90;1.90;;;17.20;1.00;;;;;;6220636;23;20420;-76
2023/09/21 01:20:32;;;;;;;10.32;2.30;;;17.30;1.00;;;;;;6239903;23;20362;-76
2023/09/21 01:23:10;;;;;;;8.23;2.50;;;17.30;1.00;;;;;;6239977;23;20384;-76
2023/09/21 01:25:40;;;;;;;6.32;2.05;;;17.30;1.00;;;;;;6239714;23;20365;-76
2023/09/21 01:28:08;;;;;;;5.57;1.80;;;17.40;1.00;;;;;;6239840;23;20664;-76
2023/09/21 01:30:38;;;;;;;8.50;2.40;;;17.40;1.00;;;;;;6239363;23;20694;-76
2023/09/21 01:33:08;;;;;;;7.00;2.60;;;17.40;99.90;;;;;;6239651;23;20439;-76
2023/09/21 01:35:36;;;;;;;6.00;1.70;;;17.40;99.90;;;;;;6238816;23;20476;-76
2023/09/21 01:38:03;;;;;;;6.07;1.73;;;17.30;1.00;;;;;;6239548;23;20781;-76
2023/09/21 01:40:28;;;;;;;6.13;1.80;;;17.40;1.00;;;;;;6239421;23;20366;-76
2023/09/21 01:42:54;;;;;;;5.85;1.75;;;17.40;1.00;;;;;;6239693;23;20377;-77
2023/09/21 01:45:20;;;;;;;11.25;2.05;;;17.40;99.90;;;;;;6239788;23;20850;-78
2023/09/21 01:47:46;;;;;;;7.60;2.17;;;17.50;99.90;;;;;;6240457;23;20948;-76
2023/09/21 01:50:15;;;;;;;5.40;1.60;;;17.50;99.90;;;;;;6240284;23;20366;-77
2023/09/21 01:52:41;;;;;;;5.88;2.22;;;17.50;99.90;;;;;;6239434;23;20388;-76
2023/09/21 01:55:10;;;;;;;6.93;1.90;;;17.60;1.00;;;;;;6239445;23;20475;-77
2023/09/21 01:57:39;;;;;;;5.80;1.88;;;17.70;99.90;;;;;;6239789;23;20679;-77
2023/09/21 02:00:25;;;;;;;8.25;2.40;;;17.70;61.60;;;;;;6239384;23;20443;-77
2023/09/21 02:02:51;;;;;;;5.72;1.50;;;17.70;1.00;;;;;;6239640;23;20389;-77
2023/09/21 02:05:17;;;;;;;5.82;1.80;;;17.80;99.90;;;;;;6239553;23;20361;-77
2023/09/21 02:07:43;;;;;;;8.38;2.33;;;17.80;1.00;;;;;;6238540;23;20374;-77
2023/09/21 02:10:10;;;;;;;6.90;2.37;;;17.80;99.90;;;;;;6238510;23;20448;-77
2023/09/21 02:12:37;;;;;;;5.90;1.90;;;17.80;1.00;;;;;;6238207;23;20396;-77
2023/09/21 02:15:12;;;;;;;8.00;2.50;;;17.80;99.90;;;;;;6238936;23;20393;-77
2023/09/21 02:17:41;;;;;;;6.10;1.77;;;17.70;1.00;;;;;;6239461;23;20778;-77
2023/09/21 02:20:15;;;;;;;6.00;2.17;;;17.60;99.90;;;;;;6239153;23;20822;-77
2023/09/21 02:22:46;;;;;;;12.68;2.70;;;17.60;1.00;;;;;;6239181;23;20365;-77
2023/09/21 02:25:12;;;;;;;9.48;2.38;;;17.70;1.00;;;;;;6239366;23;20823;-77
2023/09/21 02:27:44;;;;;;;7.43;2.50;;;17.60;1.00;;;;;;6239171;23;20367;-77
2023/09/21 02:30:16;;;;;;;7.30;2.45;;;17.50;1.00;;;;;;6239293;23;20680;-77
2023/09/21 02:32:50;;;;;;;7.10;2.50;;;17.50;99.90;;;;;;6238712;23;20435;-77
2023/09/21 02:35:29;;;;;;;6.38;2.10;;;17.50;99.90;;;;;;6240072;23;20386;-77
2023/09/21 02:37:56;;;;;;;6.82;2.53;;;17.50;99.90;;;;;;6239270;23;20420;-77
2023/09/21 02:40:23;;;;;;;8.77;3.00;;;17.50;99.90;;;;;;6239109;23;20366;-77
2023/09/21 02:42:56;;;;;;;6.80;2.60;;;17.50;99.90;;;;;;6237986;23;20370;-77
2023/09/21 02:45:27;;;;;;;8.70;2.95;;;17.50;99.90;;;;;;6238974;23;20373;-77
2023/09/21 02:48:00;;;;;;;7.55;2.78;;;17.50;99.90;;;;;;6239651;23;20461;-76
2023/09/21 02:50:27;;;;;;;8.45;3.00;;;17.50;99.90;;;;;;6240324;23;20439;-76
2023/09/21 02:53:06;;;;;;;8.85;3.15;;;17.40;99.90;;;;;;6240389;23;20467;-76
2023/09/21 02:55:33;;;;;;;9.00;3.78;;;17.40;99.90;;;;;;6239962;23;20853;-77
2023/09/21 02:58:10;;;;;;;7.10;2.70;;;17.50;99.90;;;;;;6240262;23;20361;-77
2023/09/21 03:00:39;;;;;;;8.20;2.67;;;17.50;99.90;;;;;;6240233;23;20370;-77
2023/09/21 03:03:07;;;;;;;7.63;3.35;;;17.40;99.90;;;;;;6240358;23;20832;-77
2023/09/21 03:05:33;;;;;;;7.63;2.90;;;17.40;99.90;;;;;;6240594;23;20845;-77
2023/09/21 03:08:13;;;;;;;6.78;2.80;;;17.40;99.90;;;;;;6240799;23;20357;-77
2023/09/21 03:10:45;;;;;;;6.20;2.42;;;17.40;99.90;;;;;;6240273;23;20389;-77
2023/09/21 03:13:18;;;;;;;9.40;2.70;;;17.30;99.90;;;;;;6240325;23;20845;-77
2023/09/21 03:15:48;;;;;;;8.57;3.33;;;17.30;99.90;;;;;;6240355;23;20386;-77
2023/09/21 03:18:15;;;;;;;7.63;2.50;;;17.30;99.90;;;;;;6240632;23;20447;-77
2023/09/21 03:20:43;;;;;;;10.65;3.42;;;17.30;99.90;;;;;;6239698;23;20856;-77
2023/09/21 03:23:10;;;;;;;7.40;2.90;;;17.20;1.00;;;;;;6239296;23;20366;-77
2023/09/21 03:25:40;;;;;;;7.00;2.40;;;17.30;1.00;;;;;;6240361;23;20361;-76
2023/09/21 03:28:12;;;;;;;9.15;3.28;;;17.20;1.00;;;;;;6240427;23;20450;-77
2023/09/21 03:30:46;;;;;;;9.27;2.90;;;17.20;1.00;;;;;;6240198;23;20841;-77
2023/09/21 03:33:12;;;;;;;7.10;2.70;;;17.20;1.00;;;;;;6240083;23;20370;-77
2023/09/21 03:35:39;;;;;;;8.70;3.00;;;17.10;1.00;;;;;;6240521;23;20381;-77
2023/09/21 03:38:14;;;;;;;7.07;2.50;;;17.10;1.00;;;;;;6240273;23;20358;-76
2023/09/21 03:40:43;;;;;;;7.47;2.95;;;17.00;1.00;;;;;;6239860;23;20365;-77
2023/09/21 03:43:12;;;;;;;6.20;2.25;;;17.00;1.00;;;;;;6240326;23;20370;-77
2023/09/21 03:45:42;;;;;;;8.43;2.50;;;17.00;1.00;;;;;;6240284;23;20362;-76
2023/09/21 03:48:09;;;;;;;7.22;2.80;;;17.00;1.00;;;;;;6240560;23;20687;-76
2023/09/21 03:50:35;;;;;;;6.70;2.70;;;17.10;1.00;;;;;;6212032;23;20394;-76
2023/09/21 03:53:05;;;;;;;9.77;2.67;;;17.10;1.00;;;;;;6239267;23;20378;-76
2023/09/21 03:55:31;;;;;;;7.80;2.50;;;17.10;1.00;;;;;;6239249;23;20392;-76
2023/09/21 03:57:57;;;;;;;8.02;2.40;;;17.20;1.00;;;;;;6238781;23;20370;-77
2023/09/21 04:02:48;;;;;;;6.50;2.40;;;17.30;1.00;;;;;;6241674;23;20406;-77
2023/09/21 04:05:18;;;;;;;7.10;2.50;;;17.30;1.00;;;;;;6240301;23;20396;-77
2023/09/21 04:07:45;;;;;;;6.80;2.13;;;17.50;99.90;;;;;;6240310;23;20365;-77
2023/09/21 04:10:11;;;;;;;6.85;2.75;;;17.60;99.90;;;;;;6240724;23;20676;-77
2023/09/21 04:12:39;;;;;;;6.60;2.63;;;17.60;99.90;;;;;;6239926;23;20458;-77
2023/09/21 04:15:06;;;;;;;9.60;2.50;;;17.70;99.90;;;;;;6239945;23;20695;-77
2023/09/21 04:17:32;;;;;;;5.70;2.15;;;17.70;99.90;;;;;;6240122;23;20373;-77
2023/09/21 04:19:57;;;;;;;6.77;2.30;;;17.80;99.90;;;;;;6239717;23;20362;-77
2023/09/21 04:22:23;;;;;;;8.13;2.73;;;17.90;99.90;;;;;;6240087;23;20354;-77
2023/09/21 04:24:48;;;;;;;7.85;2.38;;;18.00;99.90;;;;;;6240625;23;20373;-77
2023/09/21 04:27:14;;;;;;;6.90;2.38;;;18.00;99.90;;;;;;6240066;23;20366;-77
2023/09/21 04:29:39;;;;;;;6.17;2.40;;;18.00;99.90;;;;;;6239796;23;20367;-77
2023/09/21 04:32:05;;;;;;;7.60;2.53;;;17.90;99.90;;;;;;6240376;23;20703;-77
2023/09/21 04:34:33;;;;;;;9.93;2.50;;;17.90;99.90;;;;;;6240334;23;20373;-76
2023/09/21 04:36:59;;;;;;;6.60;2.40;;;18.00;99.90;;;;;;6239973;23;20823;-77
2023/09/21 04:39:24;;;;;;;6.13;2.03;;;18.00;99.90;;;;;;6240368;23;20362;-77
2023/09/21 04:41:50;;;;;;;6.63;2.22;;;18.10;99.90;;;;;;6239914;23;20358;-77
2023/09/21 04:44:16;;;;;;;8.02;2.47;;;18.20;24.30;;;;;;6240156;23;20370;-77
2023/09/21 04:46:42;;;;;;;9.90;2.50;;;18.30;35.40;;;;;;6239617;23;20366;-77
2023/09/21 04:49:08;;;;;;;6.50;2.60;;;18.20;1.00;;;;;;6214707;23;20389;-76
2023/09/21 04:51:34;;;;;;;8.00;2.15;;;18.10;42.60;;;;;;6240017;23;20366;-76
2023/09/21 04:53:59;;;;;;;7.72;2.50;;;18.10;31.40;;;;;;6240188;23;20439;-76
2023/09/21 04:56:26;;;;;;;12.20;2.50;;;18.10;33.90;;;;;;6239790;23;20378;-76
2023/09/21 04:58:55;;;;;;;10.13;2.70;;;18.00;99.90;;;;;;6240164;23;20423;-76
2023/09/21 05:01:24;;;;;;;6.97;2.28;;;18.00;99.90;;;;;;6240207;23;20399;-76
2023/09/21 05:03:49;;;;;;;7.53;2.43;;;17.90;99.90;;;;;;6240401;23;20373;-76
2023/09/21 05:06:18;;;;;;;8.32;2.47;;;17.90;99.90;;;;;;6240654;23;20366;-76
2023/09/21 05:08:44;;;;;;;6.47;2.28;;;17.90;99.90;;;;;;6239654;23;20390;-76
2023/09/21 05:11:10;;;;;;;8.57;2.40;;;18.00;99.90;;;;;;6239992;23;21338;-76
2023/09/21 05:13:36;;;;;;;5.75;2.08;;;18.10;99.90;;;;;;6238963;23;20389;-76
2023/09/21 05:16:03;;;;;;;7.43;2.00;;;18.10;99.90;;;;;;6240141;23;20396;-76
2023/09/21 05:18:29;;;;;;;6.30;2.27;;;18.10;99.90;;;;;;6239816;23;20346;-76
2023/09/21 05:20:55;;;;;;;6.25;1.88;;;18.00;99.90;;;;;;6207631;23;20494;-76
2023/09/21 05:23:20;;;;;;;7.07;2.47;;;18.00;99.90;;;;;;6220115;23;20865;-76
2023/09/21 05:25:46;;;;;;;9.00;2.50;;;18.10;1.00;;;;;;6240278;23;20362;-76
2023/09/21 05:28:11;;;;;;;6.60;2.42;;;18.10;1.00;;;;;;6207687;23;20398;-76
2023/09/21 05:30:37;;;;;;;8.85;2.25;;;17.80;1.00;;;;;;6226618;23;20416;-76
2023/09/21 05:33:03;;;;;;;7.77;2.70;;;17.60;1.00;;;;;;6239781;23;20790;-76
2023/09/21 05:35:29;;;;;;;9.18;2.30;;;17.50;1.00;;;;;;6239765;23;20429;-76
2023/09/21 05:37:55;;;;;;;6.93;2.20;;;17.50;1.00;;;;;;6238675;23;20369;-76
2023/09/21 05:40:21;;;;;;;8.05;2.97;;;17.70;1.00;;;;;;6239136;23;20369;-76
2023/09/21 05:42:47;;;;;;;7.70;2.20;;;17.90;1.00;;;;;;6240119;23;20374;-76
2023/09/21 05:45:13;;;;;;;7.97;2.50;;;18.10;1.00;;;;;;6239729;23;20353;-76
2023/09/21 05:47:38;;;;;;;7.15;2.65;;;18.10;1.00;;;;;;6239670;23;20461;-76
2023/09/21 05:50:05;;;;;;;7.90;2.50;;;18.20;1.00;;;;;;6240143;23;20372;-76
2023/09/21 05:52:33;;;;;;;9.30;3.10;;;18.20;1.00;;;;;;6239639;23;20885;-76
2023/09/21 05:54:59;;;;;;;7.22;2.85;;;18.10;1.00;;;;;;6238878;23;20849;-76
2023/09/21 05:57:25;;;;;;;7.03;2.67;;;18.20;1.00;;;;;;6239534;23;20362;-76
2023/09/21 05:59:51;;;;;;;8.25;2.90;;;18.20;1.00;;;;;;6239704;23;20394;-76
2023/09/21 06:02:16;;;;;;;7.60;2.38;;;18.10;1.00;;;;;;6239905;23;20355;-76
2023/09/21 06:04:42;;;;;;;7.45;2.90;;;18.10;1.00;;;;;;6238105;23;20419;-77
2023/09/21 06:07:08;;;;;;;8.70;2.23;;;18.10;1.00;;;;;;6236666;23;20438;-77
2023/09/21 06:09:33;;;;;;;7.82;2.75;;;18.10;1.00;;;;;;6239586;23;20428;-77
2023/09/21 06:12:00;;;;;;;7.20;2.97;;;18.10;1.00;;;;;;6239529;23;20370;-77
2023/09/21 06:14:25;;;;;;;7.03;2.88;;;18.20;1.00;;;;;;6239240;23;20369;-77
2023/09/21 06:16:54;;;;;;;10.30;3.75;;;18.20;1.00;;;;;;6239005;23;20480;-77
2023/09/21 06:19:20;;;;;;;6.90;3.00;;;18.20;1.00;;;;;;6239398;23;20350;-77
2023/09/21 06:21:47;;;;;;;7.07;2.75;;;18.30;1.00;;;;;;6240276;23;20365;-77
2023/09/21 06:24:14;;;;;;;7.45;2.65;;;18.40;1.00;;;;;;6240503;23;20380;-77
2023/09/21 06:26:39;;;;;;;9.18;3.08;;;18.50;1.00;;;;;;6239128;23;20370;-76
2023/09/21 06:29:05;;;;;;;7.97;2.70;;;18.60;1.00;;;;;;6240544;23;20453;-76
2023/09/21 06:31:30;;;;;;;7.07;2.80;;;18.60;99.90;;;;;;6241017;23;20415;-76
2023/09/21 06:33:59;;;;;;;10.60;2.60;;;18.60;99.90;;;;;;6240844;23;20373;-76
2023/09/21 06:36:29;;;;;;;9.10;3.53;;;18.60;99.90;;;;;;6240351;23;20404;-76
2023/09/21 06:39:00;;;;;;;12.33;3.47;;;18.50;1.00;;;;;;6240344;23;20366;-76
2023/09/21 06:41:28;;;;;;;9.13;3.10;;;18.60;1.00;;;;;;6243129;23;20659;-77
2023/09/21 06:43:53;;;;;;;7.72;3.10;;;18.70;99.90;;;;;;6243217;23;20361;-76
2023/09/21 06:46:19;;;;;;;8.70;3.35;;;18.70;99.90;;;;;;6241493;23;20415;-77
2023/09/21 06:48:45;;;;;;;8.33;3.43;;;18.80;99.90;;;;;;6240745;23;20369;-77
2023/09/21 06:51:11;;;;;;;11.18;3.58;;;18.90;99.90;;;;;;6240360;23;20366;-77
2023/09/21 06:53:37;;;;;;;7.80;2.90;;;19.00;99.90;;;;;;6208659;23;20373;-77
2023/09/21 06:56:03;;;;;;;10.60;3.15;;;19.00;99.90;;;;;;6226240;23;20412;-77
2023/09/21 06:58:30;;;;;;;9.20;3.33;;;19.00;99.90;;;;;;6240778;23;20354;-77
2023/09/21 07:00:57;;;;;;;9.07;2.90;;;19.00;99.90;;;;;;6240426;23;20362;-77
2023/09/21 07:03:23;;;;;;;9.13;3.60;;;18.90;99.90;;;;;;6240395;23;20373;-77
2023/09/21 07:05:49;;;;;;;8.27;3.30;;;19.00;99.90;;;;;;6242181;23;20353;-76
2023/09/21 07:08:16;;;;;;;8.27;3.47;;;19.00;93.00;;;;;;6241277;23;20350;-76
2023/09/21 07:10:43;;;;;;;8.43;3.20;;;19.10;32.20;;;;;;6240306;23;20373;-77
2023/09/21 07:13:09;;;;;;;8.85;3.25;;;19.20;99.90;;;;;;6241164;23;20362;-77
2023/09/21 07:15:34;;;;;;;8.30;3.05;;;19.40;4.20;;;;;;6241496;23;20691;-77
2023/09/21 07:18:00;;;;;;;10.13;3.40;;;19.50;1.00;;;;;;6240732;23;20501;-77
2023/09/21 07:20:26;;;;;;;8.37;3.40;;;19.70;99.90;;;;;;6242738;23;20366;-75
2023/09/21 07:22:58;;;;;;;7.50;2.90;;;19.90;1.00;;;;;;6243314;23;20362;-75
2023/09/21 07:25:29;;;;;;;9.93;2.63;;;20.20;99.90;;;;;;6240332;23;20457;-75
2023/09/21 07:27:56;;;;;;;7.45;3.33;;;20.60;99.90;;;;;;6240535;23;20399;-75
2023/09/21 07:30:22;;;;;;;8.65;3.40;;;20.70;99.90;;;;;;6240737;23;20373;-75
2023/09/21 07:32:47;;;;;;;8.38;2.90;;;20.90;1.00;;;;;;6240927;23;20453;-75
2023/09/21 07:35:14;;;;;;;9.23;3.93;;;21.00;1.00;;;;;;6239862;23;20762;-75
2023/09/21 07:37:45;;;;;;;8.68;3.13;;;21.10;1.00;;;;;;6240459;23;20369;-75
2023/09/21 07:40:12;;;;;;;7.38;3.35;;;21.20;99.90;;;;;;6240327;23;20738;-75
2023/09/21 07:42:42;;;;;;;7.07;2.65;;;21.30;99.90;;;;;;6240596;23;20453;-75
2023/09/21 07:45:11;;;;;;;9.63;3.20;;;21.60;99.90;;;;;;6240720;23;20365;-75
2023/09/21 07:47:38;;;;;;;7.32;3.10;;;22.00;1.00;;;;;;6239550;23;20465;-75
2023/09/21 07:50:04;;;;;;;8.07;2.88;;;22.00;1.00;;;;;;6240113;23;20445;-76
2023/09/21 07:52:30;;;;;;;8.02;2.78;;;22.20;1.00;;;;;;6240604;23;20394;-75
2023/09/21 07:54:56;;;;;;;8.20;2.30;;;22.50;99.90;;;;;;6241458;23;20361;-77
2023/09/21 07:57:22;;;;;;;7.88;2.80;;;22.80;99.90;;;;;;6240472;23;20373;-77
2023/09/21 07:59:47;;;;;;;6.87;2.50;;;23.20;99.90;;;;;;6241253;23;20775;-77
2023/09/21 08:02:13;;;;;;;8.20;2.90;;;23.60;59.00;;;;;;6240444;23;20805;-78
2023/09/21 08:04:38;;;;;;;9.90;3.00;;;23.60;1.00;;;;;;6240161;23;20787;-78
2023/09/21 08:07:05;;;;;;;7.87;2.50;;;23.40;1.00;;;;;;6240301;23;20365;-78
2023/09/21 08:09:31;;;;;;;7.18;2.70;;;23.40;2.00;;;;;;6240851;23;21100;-78
2023/09/21 08:11:57;;;;;;;6.60;2.50;;;23.90;1.00;;;;;;6208791;23;20367;-76
2023/09/21 08:14:23;;;;;;;8.13;2.40;;;25.60;1.00;;;;;;6220947;23;20548;-76
2023/09/21 08:16:50;;;;;;;7.22;2.83;;;27.60;99.90;;;;;;6241080;23;20425;-76
2023/09/21 08:19:15;;;;;;;7.63;2.90;;;28.90;99.90;;;;;;6240911;23;20419;-77
2023/09/21 08:21:41;;;;;;;7.80;2.80;;;30.00;99.90;;;;;;6240674;23;20366;-77
2023/09/21 08:24:08;;;;;;;8.07;2.77;;;29.90;99.90;;;;;;6240573;23;20354;-77
2023/09/21 08:26:34;;;;;;;8.18;2.70;;;29.10;99.90;;;;;;6240319;23;20488;-77
2023/09/21 08:29:00;;;;;;;10.15;3.67;;;28.10;99.90;;;;;;6240297;23;20370;-75
2023/09/21 08:31:25;;;;;;;6.72;2.50;;;27.30;99.90;;;;;;6240088;23;20389;-76
2023/09/21 08:33:51;;;;;;;14.95;3.25;;;26.70;99.90;;;;;;6239836;23;20370;-77
2023/09/21 08:36:16;;;;;;;8.00;2.60;;;26.20;99.90;;;;;;6241362;23;20475;-76
2023/09/21 08:38:42;;;;;;;7.33;2.60;;;25.80;99.90;;;;;;6240129;23;20685;-77
2023/09/21 08:41:08;;;;;;;9.77;3.40;;;25.80;99.90;;;;;;6240549;23;20358;-77
2023/09/21 08:43:35;;;;;;;9.75;3.00;;;25.80;99.90;;;;;;6240346;23;20365;-77
2023/09/21 08:46:00;;;;;;;7.30;2.75;;;26.00;99.90;;;;;;6239710;23;20366;-77
2023/09/21 08:48:27;;;;;;;6.67;2.33;;;25.90;99.90;;;;;;6240363;23;20365;-77
2023/09/21 08:50:55;;;;;;;13.10;2.50;;;25.80;99.90;;;;;;6240230;23;20548;-77
2023/09/21 08:53:22;;;;;;;11.33;2.20;;;25.90;99.90;;;;;;6240093;23;20388;-77
2023/09/21 08:55:49;;;;;;;6.63;2.17;;;26.00;99.90;;;;;;6240872;23;20753;-77
2023/09/21 08:58:23;;;;;;;6.77;2.33;;;25.90;99.90;;;;;;6241010;23;20702;-77
2023/09/21 09:00:55;;;;;;;7.68;2.05;;;25.90;99.90;;;;;;6240526;23;20350;-77
2023/09/21 09:03:22;;;;;;;7.05;1.88;;;25.70;99.90;;;;;;6240093;23;20350;-77
2023/09/21 09:05:48;;;;;;;9.73;2.05;;;25.70;99.90;;;;;;6240284;23;20377;-77
2023/09/21 09:08:14;;;;;;;6.28;2.03;;;25.80;99.90;;;;;;6240120;23;20354;-77
2023/09/21 09:10:40;;;;;;;6.80;1.80;;;26.00;99.90;;;;;;6240297;23;20952;-77
2023/09/21 09:13:06;;;;;;;7.10;2.40;;;26.10;99.90;;;;;;6239926;23;20358;-75
2023/09/21 09:15:37;;;;;;;8.00;1.90;;;26.50;99.90;;;;;;6239847;23;20746;-75
2023/09/21 09:18:03;;;;;;;7.90;2.50;;;26.80;99.90;;;;;;6239520;23;20351;-75
2023/09/21 09:20:30;;;;;;;7.80;2.13;;;27.20;99.90;;;;;;6239493;23;20397;-75
2023/09/21 09:22:56;;;;;;;8.23;1.93;;;27.80;99.90;;;;;;6240502;23;20354;-77
2023/09/21 09:25:21;;;;;;;6.35;2.30;;;28.40;99.90;;;;;;6239955;23;20436;-77
2023/09/21 09:27:47;;;;;;;11.40;2.20;;;28.80;99.90;;;;;;6240562;23;20782;-77
2023/09/21 09:30:13;;;;;;;6.45;2.10;;;29.30;99.90;;;;;;6239574;23;20373;-77
2023/09/21 09:32:42;;;;;;;7.80;2.40;;;28.90;99.90;;;;;;6240026;23;20905;-78
2023/09/21 09:35:13;;;;;;;12.00;2.20;;;29.00;99.90;;;;;;6239350;23;20395;-78
2023/09/21 09:37:39;;;;;;;7.20;2.30;;;28.90;99.90;;;;;;6239982;23;20365;-78
2023/09/21 09:40:23;;;;;;;6.53;2.30;;;28.80;99.90;;;;;;6239282;23;20362;-75
2023/09/21 09:42:51;;;;;;;7.45;2.40;;;28.60;99.90;;;;;;6240419;23;20440;-76
2023/09/21 09:45:30;;;;;;;6.28;2.35;;;28.40;99.90;;;;;;6239583;23;20393;-76
2023/09/21 09:47:57;;;;;;;6.35;1.80;;;28.50;99.90;;;;;;6240075;23;20358;-76
2023/09/21 09:50:24;;;;;;;8.05;1.85;;;28.40;99.90;;;;;;6239699;23;20350;-76
2023/09/21 09:53:00;;;;;;;6.90;1.95;;;28.80;99.90;;;;;;6240119;23;20408;-76
2023/09/21 09:55:29;;;;;;;7.60;2.10;;;29.20;99.90;;;;;;6239855;23;20382;-77
2023/09/21 09:57:55;;;;;;;5.85;1.80;;;29.90;99.90;;;;;;6238765;23;20358;-76
2023/09/21 10:00:22;;;;;;;6.07;1.85;;;30.30;99.90;;;;;;6239623;23;20357;-76
2023/09/21 10:02:49;;;;;;;7.45;2.10;;;30.40;99.90;;;;;;6240329;23;20370;-76
2023/09/21 10:05:20;;;;;;;6.60;1.70;;;30.70;99.90;;;;;;6240227;23;20373;-76
2023/09/21 10:07:49;;;;;;;7.25;1.60;;;30.80;99.90;;;;;;6240299;23;20398;-76
2023/09/21 10:10:19;;;;;;;7.70;1.80;;;31.10;99.90;;;;;;6239514;23;20362;-76
2023/09/21 10:12:49;;;;;;;6.90;2.03;;;31.40;99.90;;;;;;6240027;23;20373;-76
2023/09/21 10:15:16;;;;;;;6.53;2.17;;;31.30;99.90;;;;;;6239510;23;20353;-77
2023/09/21 10:17:42;;;;;;;7.68;2.20;;;30.80;99.90;;;;;;6240845;23;20394;-77
2023/09/21 10:20:15;;;;;;;6.80;1.80;;;30.40;99.90;;;;;;6246031;23;20365;-78
2023/09/21 10:22:44;;;;;;;6.20;2.40;;;30.30;99.90;;;;;;6247557;23;20377;-78
2023/09/21 10:25:15;;;;;;;6.50;2.13;;;30.00;99.90;;;;;;6243932;23;20373;-76
2023/09/21 10:27:45;;;;;;;9.77;1.80;;;29.70;99.90;;;;;;6239534;23;20357;-76
2023/09/21 10:30:12;;;;;;;7.00;1.60;;;29.50;99.90;;;;;;6239890;23;20358;-76
2023/09/21 10:32:48;;;;;;;7.60;1.90;;;29.40;99.90;;;;;;6239594;23;20452;-76
2023/09/21 10:35:39;;;;;;;6.72;1.88;;;29.30;99.90;;;;;;6239391;23;20393;-76
2023/09/21 10:38:14;;;;;;;7.00;2.00;;;29.40;99.90;;;;;;6223371;23;20382;-76
2023/09/21 10:40:40;;;;;;;5.60;1.40;;;29.90;99.90;;;;;;6239232;23;20826;-76
2023/09/21 10:43:37;;;;;;;8.00;1.90;;;30.30;99.90;;;;;;6239723;23;20358;-77
2023/09/21 10:46:06;;;;;;;5.55;1.52;;;30.60;99.90;;;;;;6239924;23;20845;-78
2023/09/21 10:48:32;;;;;;;5.80;1.40;;;30.50;99.90;;;;;;6239563;23;20444;-76
2023/09/21 10:50:58;;;;;;;6.70;1.53;;;30.30;99.90;;;;;;6239048;23;20443;-76
2023/09/21 10:53:23;;;;;;;6.20;1.60;;;30.20;99.90;;;;;;6239433;23;20822;-76
2023/09/21 10:55:49;;;;;;;8.17;1.60;;;30.40;99.90;;;;;;6239674;23;20390;-76
2023/09/21 10:58:18;;;;;;;6.80;1.52;;;29.90;99.90;;;;;;6239733;23;20449;-76
2023/09/21 11:00:43;;;;;;;5.65;1.30;;;29.40;99.90;;;;;;6238990;23;20352;-76
2023/09/21 11:03:13;;;;;;;5.55;1.30;;;29.40;99.90;;;;;;6238952;23;20397;-76
2023/09/21 11:05:39;;;;;;;6.38;1.80;;;29.80;99.90;;;;;;6239284;23;20354;-76
2023/09/21 11:08:06;;;;;;;7.10;1.47;;;30.20;99.90;;;;;;6239653;23;20368;-76
2023/09/21 11:10:32;;;;;;;5.70;1.40;;;30.10;99.90;;;;;;6209014;23;20380;-76
2023/09/21 11:12:58;;;;;;;5.60;1.20;;;30.20;99.90;;;;;;6230613;23;20437;-76
2023/09/21 11:15:25;;;;;;;5.90;1.70;;;30.40;99.90;;;;;;6240608;23;20412;-76
2023/09/21 11:17:51;;;;;;;6.90;1.70;;;30.70;99.90;;;;;;6240773;23;20354;-76
2023/09/21 11:20:18;;;;;;;5.83;1.40;;;30.80;99.90;;;;;;6241570;23;20359;-76
2023/09/21 11:22:45;;;;;;;6.20;1.33;;;30.60;99.90;;;;;;6240714;23;20397;-76
2023/09/21 11:25:14;;;;;;;5.82;1.30;;;29.80;99.90;;;;;;6240867;23;20432;-76
2023/09/21 11:27:41;;;;;;;6.70;1.42;;;29.80;99.90;;;;;;6240368;23;20358;-76
2023/09/21 11:30:10;;;;;;;6.77;2.57;;;29.80;99.90;;;;;;6241258;23;20727;-77
2023/09/21 11:32:48;;;;;;;4.97;1.05;;;29.90;99.90;;;;;;6240403;23;20432;-76
2023/09/21 11:35:17;;;;;;;8.80;1.40;;;29.90;99.90;;;;;;6240225;23;20350;-76
2023/09/21 11:37:44;;;;;;;5.40;1.40;;;29.80;99.90;;;;;;6240208;23;20436;-76
2023/09/21 11:40:13;;;;;;;5.00;0.95;;;29.60;99.90;;;;;;6240491;23;20385;-76
2023/09/21 11:42:45;;;;;;;6.13;1.50;;;29.40;99.90;;;;;;6240550;23;20361;-76
2023/09/21 11:45:19;;;;;;;5.70;1.40;;;29.00;99.90;;;;;;6240310;23;20360;-76
2023/09/21 11:47:49;;;;;;;5.35;1.00;;;28.90;99.90;;;;;;6240681;23;20358;-76
2023/09/21 11:50:22;;;;;;;5.50;1.30;;;29.00;99.90;;;;;;6240776;23;20362;-76
2023/09/21 11:52:54;;;;;;;5.30;1.20;;;29.20;99.90;;;;;;6241234;23;20746;-76
2023/09/21 11:55:29;;;;;;;5.90;1.60;;;29.60;99.90;;;;;;6239246;23;20381;-76
2023/09/21 11:58:09;;;;;;;6.80;1.80;;;29.90;99.90;;;;;;6239681;23;20405;-76
2023/09/21 12:00:45;;;;;;;9.25;2.00;;;29.80;99.90;;;;;;6240345;23;20745;-76
2023/09/21 12:03:16;;;;;;;6.03;1.67;;;30.20;99.90;;;;;;6239991;23;20444;-76
2023/09/21 12:05:45;;;;;;;5.90;1.60;;;30.70;99.90;;;;;;6240627;23;21269;-76
2023/09/21 12:08:14;;;;;;;5.90;1.80;;;30.70;99.90;;;;;;6213597;23;20882;-76
2023/09/21 12:10:45;;;;;;;6.50;1.70;;;30.50;99.90;;;;;;6240014;23;20358;-76
2023/09/21 12:13:11;;;;;;;5.40;1.45;;;30.90;99.90;;;;;;6240776;23;20668;-76
2023/09/21 12:15:37;;;;;;;7.30;1.83;;;31.00;99.90;;;;;;6240383;23;20876;-77
2023/09/21 12:18:04;;;;;;;6.90;1.50;;;30.80;99.90;;;;;;6240300;23;20683;-77
2023/09/21 12:20:31;;;;;;;6.13;1.65;;;31.10;99.90;;;;;;6240313;23;20420;-77
2023/09/21 12:22:56;;;;;;;5.85;1.42;;;31.00;99.90;;;;;;6240663;23;20416;-77
2023/09/21 12:25:24;;;;;;;6.70;1.42;;;30.50;99.90;;;;;;6240271;23;20366;-77
2023/09/21 12:27:50;;;;;;;6.07;2.00;;;30.40;99.90;;;;;;6241407;23;20392;-77
2023/09/21 12:30:17;;;;;;;6.60;1.67;;;30.50;99.90;;;;;;6241248;23;20366;-77
2023/09/21 12:32:43;;;;;;;7.10;1.70;;;31.10;99.90;;;;;;6240132;23;20387;-77
2023/09/21 12:35:10;;;;;;;5.63;1.48;;;31.10;99.90;;;;;;6240642;23;20392;-77
2023/09/21 12:37:37;;;;;;;6.55;1.45;;;31.00;99.90;;;;;;6240806;23;20369;-77
2023/09/21 12:40:11;;;;;;;5.60;1.48;;;30.50;99.90;;;;;;6240630;23;20376;-77
2023/09/21 12:42:39;;;;;;;7.43;1.30;;;30.20;99.90;;;;;;6240093;23;20369;-77
2023/09/21 12:45:07;;;;;;;9.50;1.80;;;29.80;99.90;;;;;;6240251;23;20828;-77
2023/09/21 12:47:33;;;;;;;5.22;1.40;;;29.70;99.90;;;;;;6240262;23;20397;-77
2023/09/21 12:49:59;;;;;;;6.82;1.80;;;29.90;99.90;;;;;;6240545;23;20372;-77
2023/09/21 12:52:25;;;;;;;5.73;1.50;;;30.00;99.90;;;;;;6240814;23;20372;-77
2023/09/21 12:54:50;;;;;;;8.50;1.70;;;29.90;99.90;;;;;;6238764;22;20686;-77